createdAt,value
2022-09-28T00:02:24.255Z,11.85
2022-09-28T00:04:51.026Z,11.83
2022-09-28T00:07:17.522Z,11.95
2022-09-28T00:09:44.160Z,11.92
2022-09-28T00:12:11.758Z,12.21
2022-09-28T00:14:40.480Z,12.08
2022-09-28T00:17:08.243Z,12.12
2022-09-28T00:19:34.905Z,12.22
2022-09-28T00:22:01.403Z,12.08
2022-09-28T00:24:28.632Z,12.08
2022-09-28T00:26:57.155Z,12.15
2022-09-28T00:29:28.253Z,12.30
2022-09-28T00:32:16.628Z,12.35
2022-09-28T00:34:48.912Z,12.46
2022-09-28T00:37:15.625Z,12.49
2022-09-28T00:39:43.397Z,12.48
2022-09-28T00:42:14.314Z,12.53
2022-09-28T00:44:46.382Z,12.55
2022-09-28T00:47:15.910Z,12.60
2022-09-28T00:49:53.795Z,12.56
2022-09-28T00:52:34.137Z,12.38
2022-09-28T00:55:05.911Z,12.24
2022-09-28T00:57:33.625Z,12.33
2022-09-28T01:00:01.858Z,12.34
2022-09-28T01:02:28.790Z,12.44
2022-09-28T01:04:57.205Z,12.46
2022-09-28T01:07:24.185Z,12.36
2022-09-28T01:09:52.309Z,12.34
2022-09-28T01:12:18.890Z,12.37
2022-09-28T01:14:45.965Z,12.58
2022-09-28T01:17:16.177Z,12.62
2022-09-28T01:19:58.965Z,12.50
2022-09-28T01:22:37.412Z,12.59
2022-09-28T01:25:12.445Z,12.53
2022-09-28T01:27:48.908Z,12.53
2022-09-28T01:30:20.078Z,12.55
2022-09-28T01:32:54.544Z,12.55
2022-09-28T01:35:31.345Z,12.55
2022-09-28T01:38:34.074Z,12.60
2022-09-28T01:41:01.827Z,12.61
2022-09-28T01:43:30.505Z,12.60
2022-09-28T01:46:18.583Z,12.51
2022-09-28T01:48:57.322Z,12.37
2022-09-28T01:51:41.143Z,12.46
2022-09-28T01:54:13.102Z,12.44
2022-09-28T01:56:52.563Z,12.40
2022-09-28T01:59:25.812Z,12.33
2022-09-28T02:01:56.563Z,12.48
2022-09-28T02:04:28.512Z,12.52
2022-09-28T02:07:05.033Z,12.56
2022-09-28T02:09:47.234Z,12.55
2022-09-28T02:12:21.131Z,12.55
2022-09-28T02:14:52.029Z,12.65
2022-09-28T02:17:20.185Z,12.60
2022-09-28T02:19:47.601Z,12.60
2022-09-28T02:22:23.318Z,12.64
2022-09-28T02:25:10.375Z,12.50
2022-09-28T02:27:51.016Z,12.38
2022-09-28T02:30:18.287Z,12.43
2022-09-28T02:32:49.063Z,12.38
2022-09-28T02:35:18.233Z,12.37
2022-09-28T02:37:45.935Z,12.48
2022-09-28T02:40:15.252Z,12.38
2022-09-28T02:43:12.144Z,12.51
2022-09-28T02:45:41.924Z,12.55
2022-09-28T02:48:42.672Z,12.48
2022-09-28T02:51:45.823Z,12.54
2022-09-28T02:54:34.844Z,12.56
2022-09-28T02:57:13.051Z,12.58
2022-09-28T03:00:12.210Z,12.65
2022-09-28T03:03:01.661Z,12.63
2022-09-28T03:06:09.295Z,12.61
2022-09-28T03:08:52.070Z,12.67
2022-09-28T03:11:28.724Z,12.67
2022-09-28T03:13:56.168Z,12.57
2022-09-28T03:16:32.155Z,12.53
2022-09-28T03:18:59.032Z,12.51
2022-09-28T03:21:25.549Z,12.40
2022-09-28T03:23:52.167Z,12.40
2022-09-28T03:26:19.785Z,12.43
2022-09-28T03:28:46.657Z,12.43
2022-09-28T03:31:19.388Z,12.37
2022-09-28T03:33:46.470Z,12.33
2022-09-28T03:36:14.956Z,12.23
2022-09-28T03:38:41.587Z,12.09
2022-09-28T03:41:08.329Z,12.11
2022-09-28T03:43:37.538Z,12.22
2022-09-28T03:46:04.965Z,12.22
2022-09-28T03:48:40.028Z,12.12
2022-09-28T03:51:10.564Z,12.03
2022-09-28T03:53:39.341Z,12.09
2022-09-28T03:56:13.378Z,12.14
2022-09-28T03:58:41.605Z,11.98
2022-09-28T04:01:16.532Z,11.93
2022-09-28T04:03:46.130Z,11.91
2022-09-28T04:06:13.762Z,11.77
2022-09-28T04:08:40.561Z,11.73
2022-09-28T04:11:07.094Z,11.70
2022-09-28T04:13:33.863Z,11.80
2022-09-28T04:16:01.456Z,11.76
2022-09-28T04:18:32.782Z,11.82
2022-09-28T04:21:22.206Z,11.90
2022-09-28T04:23:54.442Z,11.89
2022-09-28T04:26:23.758Z,11.95
2022-09-28T04:29:09.403Z,12.02
2022-09-28T04:31:46.699Z,12.04
2022-09-28T04:34:17.458Z,12.09
2022-09-28T04:36:45.294Z,12.02
2022-09-28T04:39:12.790Z,11.95
2022-09-28T04:41:40.673Z,11.96
2022-09-28T04:44:07.909Z,11.94
2022-09-28T04:46:35.287Z,12.02
2022-09-28T04:49:20.534Z,12.08
2022-09-28T04:51:55.002Z,12.07
2022-09-28T04:54:21.824Z,12.04
2022-09-28T04:56:49.021Z,11.99
2022-09-28T04:59:15.701Z,12.01
2022-09-28T05:01:43.017Z,12.03
2022-09-28T05:04:28.349Z,12.07
2022-09-28T05:07:03.512Z,12.04
2022-09-28T05:09:31.591Z,12.16
2022-09-28T05:11:59.578Z,12.22
2022-09-28T05:14:26.189Z,12.21
2022-09-28T05:16:52.876Z,12.20
2022-09-28T05:19:19.570Z,12.08
2022-09-28T05:21:46.879Z,12.14
2022-09-28T05:24:13.882Z,12.07
2022-09-28T05:26:43.351Z,12.08
2022-09-28T05:29:10.642Z,12.06
2022-09-28T05:31:40.110Z,12.12
2022-09-28T05:34:09.545Z,12.19
2022-09-28T05:36:37.275Z,12.04
2022-09-28T05:39:04.746Z,12.04
2022-09-28T05:41:31.607Z,11.98
2022-09-28T05:44:00.039Z,11.97
2022-09-28T05:46:26.609Z,11.93
2022-09-28T05:48:54.199Z,11.96
2022-09-28T05:51:21.248Z,11.99
2022-09-28T05:53:48.075Z,12.02
2022-09-28T05:56:16.230Z,12.04
2022-09-28T05:58:44.603Z,12.02
2022-09-28T06:01:11.991Z,12.12
2022-09-28T06:03:39.045Z,12.02
2022-09-28T06:06:06.645Z,11.96
2022-09-28T06:08:33.500Z,11.96
2022-09-28T06:11:17.534Z,11.97
2022-09-28T06:13:44.612Z,11.94
2022-09-28T06:16:15.803Z,12.02
2022-09-28T06:18:42.966Z,12.03
2022-09-28T06:21:28.115Z,12.09
2022-09-28T06:23:54.823Z,12.02
2022-09-28T06:26:21.474Z,12.06
2022-09-28T06:28:48.594Z,12.06
2022-09-28T06:31:16.058Z,12.08
2022-09-28T06:33:48.481Z,12.16
2022-09-28T06:36:15.996Z,12.14
2022-09-28T06:38:42.843Z,12.19
2022-09-28T06:41:11.394Z,12.22
2022-09-28T06:43:40.841Z,12.30
2022-09-28T06:46:26.180Z,12.34
2022-09-28T06:49:14.156Z,12.36
2022-09-28T06:52:12.512Z,12.44
2022-09-28T06:54:57.798Z,12.45
2022-09-28T06:57:41.118Z,12.38
2022-09-28T07:00:08.517Z,12.40
2022-09-28T07:02:35.484Z,12.43
2022-09-28T07:05:26.703Z,12.33
2022-09-28T07:08:19.614Z,12.50
2022-09-28T07:11:07.904Z,12.54
2022-09-28T07:13:51.153Z,12.54
2022-09-28T07:16:26.404Z,12.50
2022-09-28T07:18:54.089Z,12.56
2022-09-28T07:21:29.297Z,12.58
2022-09-28T07:23:59.985Z,12.61
2022-09-28T07:26:45.448Z,12.65
2022-09-28T07:29:25.946Z,12.64
2022-09-28T07:32:00.209Z,12.57
2022-09-28T07:34:26.840Z,12.62
2022-09-28T07:37:00.992Z,12.54
2022-09-28T07:39:28.041Z,12.56
2022-09-28T07:41:59.734Z,12.68
2022-09-28T07:44:29.791Z,12.71
2022-09-28T07:46:56.827Z,12.73
2022-09-28T07:49:44.186Z,12.76
2022-09-28T07:52:15.404Z,12.83
2022-09-28T07:55:07.169Z,12.90
2022-09-28T07:57:56.263Z,12.94
2022-09-28T08:00:38.250Z,12.96
2022-09-28T08:03:04.888Z,13.00
2022-09-28T08:05:35.799Z,13.03
2022-09-28T08:08:03.032Z,13.09
2022-09-28T08:10:29.719Z,13.11
2022-09-28T08:13:21.245Z,13.14
2022-09-28T08:16:02.882Z,13.11
2022-09-28T08:18:52.456Z,13.18
2022-09-28T08:21:39.830Z,13.16
2022-09-28T08:24:06.462Z,13.22
2022-09-28T08:26:33.619Z,13.25
2022-09-28T08:29:00.270Z,13.25
2022-09-28T08:31:47.833Z,13.18
2022-09-28T08:34:32.805Z,13.27
2022-09-28T08:37:06.988Z,13.27
2022-09-28T08:39:52.226Z,13.32
2022-09-28T08:42:43.406Z,13.36
2022-09-28T08:45:15.334Z,13.41
2022-09-28T08:48:30.868Z,13.51
2022-09-28T08:51:43.623Z,13.56
2022-09-28T08:54:49.502Z,13.57
2022-09-28T08:57:32.189Z,13.62
2022-09-28T09:00:01.936Z,13.68
2022-09-28T09:02:36.670Z,13.74
2022-09-28T09:05:48.704Z,13.81
2022-09-28T09:08:28.102Z,13.87
2022-09-28T09:10:58.575Z,13.92
2022-09-28T09:13:50.850Z,13.88
2022-09-28T09:16:21.653Z,13.88
2022-09-28T09:19:35.543Z,13.90
2022-09-28T09:22:23.917Z,13.98
2022-09-28T09:25:20.311Z,14.06
2022-09-28T09:28:13.673Z,14.22
2022-09-28T09:31:11.072Z,14.34
2022-09-28T09:33:54.562Z,14.37
2022-09-28T09:37:02.785Z,14.36
2022-09-28T09:40:11.492Z,14.49
2022-09-28T09:43:19.602Z,14.47
2022-09-28T09:46:19.928Z,14.58
2022-09-28T09:49:16.810Z,14.63
2022-09-28T09:52:10.120Z,14.60
2022-09-28T09:54:46.448Z,14.76
2022-09-28T09:57:30.701Z,14.90
2022-09-28T10:00:12.007Z,14.92
2022-09-28T10:02:49.754Z,15.04
2022-09-28T10:05:35.836Z,15.11
2022-09-28T10:08:16.246Z,15.13
2022-09-28T10:11:07.611Z,15.21
2022-09-28T10:13:38.281Z,15.24
2022-09-28T10:16:19.132Z,15.25
2022-09-28T10:18:54.448Z,15.37
2022-09-28T10:21:41.220Z,15.30
2022-09-28T10:24:30.296Z,15.41
2022-09-28T10:27:03.119Z,15.54
2022-09-28T10:29:40.045Z,15.62
2022-09-28T10:32:25.258Z,15.70
2022-09-28T10:35:14.895Z,15.69
2022-09-28T10:38:04.541Z,15.75
2022-09-28T10:40:59.205Z,15.99
2022-09-28T10:43:50.617Z,16.20
2022-09-28T10:46:23.471Z,16.32
2022-09-28T10:48:53.952Z,16.37
2022-09-28T10:51:42.352Z,16.38
2022-09-28T10:54:19.778Z,16.42
2022-09-28T10:56:51.449Z,16.53
2022-09-28T10:59:29.263Z,16.49
2022-09-28T11:02:19.587Z,16.36
2022-09-28T11:04:53.937Z,16.40
2022-09-28T11:07:30.550Z,16.61
2022-09-28T11:09:58.891Z,16.73
2022-09-28T11:12:29.652Z,16.77
2022-09-28T11:15:01.517Z,16.85
2022-09-28T11:17:40.452Z,16.87
2022-09-28T11:20:28.251Z,17.01
2022-09-28T11:23:20.341Z,17.13
2022-09-28T11:25:58.668Z,17.14
2022-09-28T11:28:32.634Z,17.05
2022-09-28T11:31:02.939Z,17.04
2022-09-28T11:33:41.309Z,17.04
2022-09-28T11:36:39.619Z,17.09
2022-09-28T11:39:27.619Z,17.13
2022-09-28T11:42:40.829Z,17.18
2022-09-28T11:45:43.122Z,17.25
2022-09-28T11:48:25.638Z,17.20
2022-09-28T11:50:56.592Z,17.18
2022-09-28T11:53:48.993Z,17.23
2022-09-28T11:56:49.623Z,17.22
2022-09-28T11:59:27.608Z,17.29
2022-09-28T12:02:20.667Z,17.30
2022-09-28T12:05:02.982Z,17.27
2022-09-28T12:07:47.418Z,17.24
2022-09-28T12:10:36.970Z,17.23
2022-09-28T12:13:10.599Z,17.25
2022-09-28T12:15:59.199Z,17.24
2022-09-28T12:18:29.937Z,17.23
2022-09-28T12:21:24.240Z,17.15
2022-09-28T12:23:55.899Z,17.14
2022-09-28T12:27:04.364Z,17.26
2022-09-28T12:29:37.841Z,17.30
2022-09-28T12:32:07.504Z,17.30
2022-09-28T12:34:34.039Z,17.28
2022-09-28T12:37:37.470Z,17.29
2022-09-28T12:40:36.786Z,17.30
2022-09-28T12:43:14.893Z,17.40
2022-09-28T12:46:09.744Z,17.40
2022-09-28T12:49:33.186Z,17.38
2022-09-28T12:51:52.258Z,17.35
2022-09-28T12:54:54.303Z,17.39
2022-09-28T12:57:42.468Z,17.34
2022-09-28T13:00:13.726Z,17.23
2022-09-28T13:02:40.336Z,17.20
2022-09-28T13:05:22.751Z,17.19
2022-09-28T13:07:58.267Z,17.23
2022-09-28T13:10:35.176Z,17.21
2022-09-28T13:13:32.549Z,17.23
2022-09-28T13:16:21.512Z,17.24
2022-09-28T13:18:48.097Z,17.21
2022-09-28T13:21:20.373Z,17.19
2022-09-28T13:23:50.328Z,17.16
2022-09-28T13:26:23.673Z,17.18
2022-09-28T13:28:54.759Z,17.17
2022-09-28T13:31:31.866Z,17.13
2022-09-28T13:34:03.602Z,17.04
2022-09-28T13:36:30.524Z,17.03
2022-09-28T13:38:59.481Z,16.91
2022-09-28T13:41:35.425Z,16.88
2022-09-28T13:44:10.962Z,16.88
2022-09-28T13:46:58.618Z,16.86
2022-09-28T13:50:13.108Z,16.91
2022-09-28T13:53:02.094Z,16.91
2022-09-28T13:55:34.321Z,16.91
2022-09-28T13:58:05.575Z,16.97
2022-09-28T14:00:47.402Z,17.03
2022-09-28T14:04:08.175Z,17.21
2022-09-28T14:06:34.891Z,17.35
2022-09-28T14:09:13.326Z,17.49
2022-09-28T14:11:55.439Z,17.60
2022-09-28T14:14:47.147Z,17.54
2022-09-28T14:17:19.729Z,17.60
2022-09-28T14:19:52.639Z,17.58
2022-09-28T14:22:44.956Z,17.81
2022-09-28T14:25:33.232Z,17.83
2022-09-28T14:28:27.621Z,17.91
2022-09-28T14:30:59.621Z,18.06
2022-09-28T14:33:30.606Z,18.19
2022-09-28T14:36:02.050Z,18.08
2022-09-28T14:39:05.788Z,18.00
2022-09-28T14:41:41.820Z,17.91
2022-09-28T14:44:16.416Z,17.95
2022-09-28T14:46:47.770Z,18.13
2022-09-28T14:49:17.566Z,18.11
2022-09-28T14:51:44.083Z,18.03
2022-09-28T14:54:10.596Z,17.99
2022-09-28T14:56:56.962Z,18.02
2022-09-28T14:59:36.174Z,18.01
2022-09-28T15:02:12.413Z,17.99
2022-09-28T15:04:46.789Z,18.13
2022-09-28T15:07:53.045Z,18.27
2022-09-28T15:10:27.794Z,18.19
2022-09-28T15:12:57.059Z,18.09
2022-09-28T15:15:38.928Z,17.98
2022-09-28T15:18:42.499Z,17.81
2022-09-28T15:21:11.091Z,17.67
2022-09-28T15:23:40.177Z,17.59
2022-09-28T15:26:19.781Z,17.52
2022-09-28T15:28:46.719Z,17.46
2022-09-28T15:31:19.088Z,17.41
2022-09-28T15:34:04.868Z,17.40
2022-09-28T15:36:36.262Z,17.35
2022-09-28T15:39:15.743Z,17.33
2022-09-28T15:41:44.182Z,17.30
2022-09-28T15:44:10.626Z,17.31
2022-09-28T15:46:40.652Z,17.23
2022-09-28T15:49:23.312Z,17.21
2022-09-28T15:51:53.405Z,17.17
2022-09-28T15:54:27.219Z,17.09
2022-09-28T15:56:55.090Z,17.10
2022-09-28T15:59:39.388Z,17.13
2022-09-28T16:02:16.735Z,16.93
2022-09-28T16:04:50.497Z,16.88
2022-09-28T16:07:39.477Z,16.91
2022-09-28T16:10:31.211Z,16.81
2022-09-28T16:13:08.332Z,16.77
2022-09-28T16:15:37.262Z,16.74
2022-09-28T16:18:12.713Z,16.73
2022-09-28T16:20:40.415Z,16.65
2022-09-28T16:23:20.068Z,16.63
2022-09-28T16:25:53.961Z,16.63
2022-09-28T16:28:34.974Z,16.65
2022-09-28T16:31:07.041Z,16.58
2022-09-28T16:33:46.795Z,16.58
2022-09-28T16:36:15.749Z,16.61
2022-09-28T16:38:46.225Z,16.59
2022-09-28T16:41:14.715Z,16.57
2022-09-28T16:43:41.289Z,16.48
2022-09-28T16:46:14.456Z,16.45
2022-09-28T16:48:48.481Z,16.34
2022-09-28T16:51:19.312Z,16.23
2022-09-28T16:54:04.513Z,16.25
2022-09-28T16:56:33.277Z,16.18
2022-09-28T16:58:59.817Z,16.07
2022-09-28T17:01:27.129Z,16.07
2022-09-28T17:03:54.062Z,16.11
2022-09-28T17:06:25.219Z,16.09
2022-09-28T17:08:55.165Z,15.98
2022-09-28T17:11:24.658Z,16.00
2022-09-28T17:13:52.058Z,15.91
2022-09-28T17:16:32.205Z,15.79
2022-09-28T17:19:18.998Z,15.66
2022-09-28T17:21:46.528Z,15.64
2022-09-28T17:24:13.208Z,15.54
2022-09-28T17:26:43.722Z,15.48
2022-09-28T17:29:14.461Z,15.33
2022-09-28T17:31:43.066Z,15.19
2022-09-28T17:34:11.078Z,15.33
2022-09-28T17:36:38.633Z,15.31
2022-09-28T17:39:06.667Z,15.36
2022-09-28T17:41:34.248Z,15.30
2022-09-28T17:44:03.031Z,15.26
2022-09-28T17:46:36.173Z,15.28
2022-09-28T17:49:05.379Z,15.29
2022-09-28T17:51:34.886Z,15.31
2022-09-28T17:54:01.870Z,15.41
2022-09-28T17:56:32.251Z,15.33
2022-09-28T17:59:07.754Z,15.37
2022-09-28T18:01:38.129Z,15.42
2022-09-28T18:04:08.027Z,15.48
2022-09-28T18:06:35.101Z,15.45
2022-09-28T18:09:06.399Z,15.36
2022-09-28T18:11:33.755Z,15.42
2022-09-28T18:14:04.978Z,15.22
2022-09-28T18:16:34.946Z,15.29
2022-09-28T18:19:01.544Z,15.26
2022-09-28T18:21:32.565Z,15.41
2022-09-28T18:23:59.211Z,15.48
2022-09-28T18:26:25.743Z,15.38
2022-09-28T18:28:54.988Z,15.45
2022-09-28T18:31:21.774Z,15.49
2022-09-28T18:33:48.615Z,15.53
2022-09-28T18:36:15.587Z,15.58
2022-09-28T18:38:42.227Z,15.57
2022-09-28T18:41:17.228Z,15.56
2022-09-28T18:43:49.311Z,15.63
2022-09-28T18:46:18.224Z,15.59
2022-09-28T18:48:45.380Z,15.69
2022-09-28T18:51:12.524Z,15.79
2022-09-28T18:53:40.229Z,15.80
2022-09-28T18:56:09.472Z,15.74
2022-09-28T18:58:37.181Z,15.82
2022-09-28T19:04:00.941Z,15.76
2022-09-28T19:06:28.219Z,15.70
2022-09-28T19:08:55.828Z,15.67
2022-09-28T19:11:23.518Z,15.79
2022-09-28T19:13:50.386Z,15.68
2022-09-28T19:16:22.647Z,15.64
2022-09-28T19:18:51.284Z,15.62
2022-09-28T19:21:18.022Z,15.57
2022-09-28T19:23:49.243Z,15.57
2022-09-28T19:26:20.886Z,15.55
2022-09-28T19:28:47.900Z,15.55
2022-09-28T19:31:14.449Z,15.57
2022-09-28T19:33:41.817Z,15.50
2022-09-28T19:36:11.295Z,15.53
2022-09-28T19:38:39.258Z,15.42
2022-09-28T19:41:10.275Z,15.33
2022-09-28T19:43:36.921Z,15.33
2022-09-28T19:46:05.742Z,15.30
2022-09-28T19:48:33.850Z,15.29
2022-09-28T19:51:03.522Z,15.28
2022-09-28T19:53:34.130Z,15.27
2022-09-28T19:56:05.095Z,15.18
2022-09-28T19:58:35.485Z,15.22
2022-09-28T20:01:08.318Z,15.18
2022-09-28T20:03:35.384Z,15.17
2022-09-28T20:06:02.757Z,15.07
2022-09-28T20:08:32.511Z,15.05
2022-09-28T20:11:00.277Z,15.03
2022-09-28T20:13:35.353Z,15.02
2022-09-28T20:16:07.545Z,15.08
2022-09-28T20:18:35.792Z,15.00
2022-09-28T20:21:07.675Z,15.02
2022-09-28T20:23:37.274Z,15.10
2022-09-28T20:26:05.414Z,15.14
2022-09-28T20:28:32.728Z,15.09
2022-09-28T20:31:03.698Z,15.03
2022-09-28T20:33:32.649Z,15.03
2022-09-28T20:36:10.636Z,15.01
2022-09-28T20:38:40.308Z,14.97
2022-09-28T20:41:12.537Z,14.93
2022-09-28T20:43:40.308Z,14.95
2022-09-28T20:46:10.194Z,14.96
2022-09-28T20:48:37.036Z,14.96
2022-09-28T20:51:12.063Z,14.98
2022-09-28T20:53:40.775Z,14.79
2022-09-28T20:56:25.430Z,14.79
2022-09-28T20:58:53.088Z,14.82
2022-09-28T21:01:28.595Z,14.78
2022-09-28T21:03:56.365Z,14.79
2022-09-28T21:06:33.539Z,14.81
2022-09-28T21:09:00.178Z,14.84
2022-09-28T21:11:28.153Z,14.75
2022-09-28T21:14:00.410Z,14.68
2022-09-28T21:16:29.229Z,14.65
2022-09-28T21:18:55.995Z,14.58
2022-09-28T21:21:23.689Z,14.56
2022-09-28T21:23:54.959Z,14.54
2022-09-28T21:26:26.974Z,14.57
2022-09-28T21:28:54.360Z,14.55
2022-09-28T21:31:26.212Z,14.45
2022-09-28T21:33:55.552Z,14.46
2022-09-28T21:36:22.062Z,14.45
2022-09-28T21:38:49.298Z,14.47
2022-09-28T21:41:16.033Z,14.51
2022-09-28T21:43:42.642Z,14.36
2022-09-28T21:46:10.383Z,14.40
2022-09-28T21:48:37.155Z,14.41
2022-09-28T21:51:06.586Z,14.48
2022-09-28T21:53:35.516Z,14.54
2022-09-28T21:56:04.290Z,14.54
2022-09-28T21:58:33.529Z,14.57
2022-09-28T22:01:14.804Z,14.56
2022-09-28T22:03:43.884Z,14.53
2022-09-28T22:06:11.223Z,14.52
2022-09-28T22:08:38.575Z,14.59
2022-09-28T22:11:08.258Z,14.65
2022-09-28T22:13:40.077Z,14.72
2022-09-28T22:16:07.505Z,14.81
2022-09-28T22:18:34.688Z,14.77
2022-09-28T22:21:08.877Z,14.75
2022-09-28T22:23:36.903Z,14.73
2022-09-28T22:26:07.104Z,14.68
2022-09-28T22:28:34.317Z,14.63
2022-09-28T22:31:01.169Z,14.58
2022-09-28T22:33:28.055Z,14.46
2022-09-28T22:35:55.164Z,14.50
2022-09-28T22:38:23.642Z,14.54
2022-09-28T22:40:52.427Z,14.53
2022-09-28T22:43:19.155Z,14.51
2022-09-28T22:45:45.763Z,14.47
2022-09-28T22:48:13.118Z,14.53
2022-09-28T22:50:39.642Z,14.52
2022-09-28T22:53:06.542Z,14.24
2022-09-28T22:55:33.927Z,14.30
2022-09-28T22:58:01.860Z,14.27
2022-09-28T23:00:28.406Z,14.24
2022-09-28T23:02:54.992Z,14.25
2022-09-28T23:05:21.536Z,14.30
2022-09-28T23:07:48.114Z,14.34
2022-09-28T23:10:14.719Z,14.27
2022-09-28T23:12:41.323Z,14.19
2022-09-28T23:15:08.561Z,14.19
2022-09-28T23:17:35.184Z,14.11
2022-09-28T23:20:02.062Z,14.09
2022-09-28T23:22:28.581Z,14.08
2022-09-28T23:24:55.253Z,14.11
2022-09-28T23:27:21.820Z,14.06
2022-09-28T23:29:48.947Z,14.01
2022-09-28T23:32:19.296Z,13.76
2022-09-28T23:34:45.966Z,13.75
2022-09-28T23:37:12.437Z,13.68
2022-09-28T23:39:38.999Z,13.72
2022-09-28T23:42:05.701Z,13.73
2022-09-28T23:44:33.134Z,13.70
2022-09-28T23:46:59.705Z,13.74
2022-09-28T23:49:26.522Z,13.77
2022-09-28T23:51:53.023Z,13.87
2022-09-28T23:54:19.584Z,13.92
2022-09-28T23:56:46.129Z,13.92
2022-09-28T23:59:12.704Z,13.97
